Time;durP1;ratioP1;P1;durP2;ratioP2;P2;SDS_P1;SDS_P2;PMS_P1;PMS_P2;Temp;Humidity;BMP_temperature;BMP_pressure;BME280_temperature;BME280_humidity;BME280_pressure;Samples;Min_cycle;Max_cycle;Signal;HPM_P1;HPM_P2
2023/09/03 00:02:22;;;;;;;8.30;3.50;;;;;;;12.97;100.00;100390.73;109027;1258;59327;-66
2023/09/03 00:05:09;;;;;;;9.20;3.90;;;;;;;12.95;100.00;100385.72;109083;1259;74999;-66
2023/09/03 00:07:56;;;;;;;10.60;4.60;;;;;;;12.94;100.00;100391.86;109095;1259;66335;-65
2023/09/03 00:10:42;;;;;;;10.90;3.80;;;;;;;12.95;100.00;100392.20;109006;1260;73966;-65
2023/09/03 00:13:29;;;;;;;11.90;4.50;;;;;;;12.92;100.00;100389.51;108965;1260;59459;-68
2023/09/03 00:16:15;;;;;;;10.30;4.10;;;;;;;12.91;100.00;100391.73;108965;1260;58925;-65
2023/09/03 00:19:01;;;;;;;11.80;4.40;;;;;;;12.91;100.00;100389.63;108982;1260;73707;-66
2023/09/03 00:21:47;;;;;;;8.90;3.70;;;;;;;12.90;100.00;100389.17;108982;1260;68722;-66
2023/09/03 00:24:34;;;;;;;8.90;3.80;;;;;;;12.90;100.00;100385.27;108993;1260;72674;-66
2023/09/03 00:27:20;;;;;;;8.50;3.70;;;;;;;12.89;100.00;100384.13;108960;1260;60337;-66
2023/09/03 00:30:06;;;;;;;9.50;3.90;;;;;;;12.87;100.00;100383.92;108997;1260;61812;-65
2023/09/03 00:32:52;;;;;;;9.30;3.60;;;;;;;12.85;100.00;100382.64;109004;1260;73680;-66
2023/09/03 00:35:40;;;;;;;9.00;4.00;;;;;;;12.83;100.00;100383.59;108960;1260;69009;-66
2023/09/03 00:38:27;;;;;;;9.10;3.50;;;;;;;12.80;100.00;100384.70;108979;1259;72671;-66
2023/09/03 00:41:14;;;;;;;9.90;3.30;;;;;;;12.79;100.00;100386.56;108846;1260;59370;-66
2023/09/03 00:44:00;;;;;;;9.70;3.80;;;;;;;12.76;100.00;100386.02;108975;1260;60004;-66
2023/09/03 00:46:46;;;;;;;11.70;4.60;;;;;;;12.75;100.00;100379.58;109001;1260;73902;-66
2023/09/03 00:49:40;;;;;;;9.60;3.80;;;;;;;12.73;100.00;100373.98;108980;1260;66645;-65
2023/09/03 00:52:27;;;;;;;9.50;3.60;;;;;;;12.72;100.00;100371.82;108923;1260;71894;-65
2023/09/03 00:55:14;;;;;;;11.80;3.80;;;;;;;12.71;100.00;100370.96;108910;1260;59699;-66
2023/09/03 00:58:00;;;;;;;10.70;4.00;;;;;;;12.70;100.00;100373.16;109004;1260;60241;-66
2023/09/03 01:00:47;;;;;;;9.30;4.10;;;;;;;12.72;100.00;100371.61;109016;1260;74908;-66
2023/09/03 01:03:35;;;;;;;11.60;3.60;;;;;;;12.73;100.00;100364.92;108994;1260;68176;-65
2023/09/03 01:06:23;;;;;;;8.80;3.70;;;;;;;12.74;100.00;100363.92;108951;1260;73573;-65
2023/09/03 01:09:11;;;;;;;9.40;3.70;;;;;;;12.75;100.00;100362.63;108985;1260;58419;-64
2023/09/03 01:12:20;;;;;;;9.50;3.80;;;;;;;12.75;100.00;100361.14;108989;1260;60158;-65
2023/09/03 01:15:14;;;;;;;9.80;3.80;;;;;;;12.76;100.00;100356.66;109013;1260;74161;-65
2023/09/03 01:18:14;;;;;;;8.90;3.90;;;;;;;12.77;100.00;100349.44;109015;1259;67931;-65
2023/09/03 01:21:38;;;;;;;9.40;3.50;;;;;;;12.78;100.00;100347.94;109002;1259;71819;-65
2023/09/03 01:24:58;;;;;;;11.30;3.90;;;;;;;12.78;100.00;100345.44;108966;1261;59470;-65
2023/09/03 01:28:02;;;;;;;12.00;3.80;;;;;;;12.79;100.00;100350.56;108992;1260;61091;-65
2023/09/03 01:31:02;;;;;;;11.20;4.40;;;;;;;12.78;100.00;100348.30;109029;1259;72591;-65
2023/09/03 01:33:48;;;;;;;9.50;3.90;;;;;;;12.78;100.00;100348.69;108906;1260;66611;-64
2023/09/03 01:36:35;;;;;;;9.50;3.40;;;;;;;12.76;100.00;100353.50;108981;1260;72529;-64
2023/09/03 01:39:21;;;;;;;8.20;3.20;;;;;;;12.74;100.00;100356.66;108920;1261;60002;-65
2023/09/03 01:42:07;;;;;;;9.40;3.50;;;;;;;12.72;100.00;100357.18;108997;1260;60002;-65
2023/09/03 01:44:54;;;;;;;11.00;3.70;;;;;;;12.70;100.00;100364.46;108995;1260;74858;-65
2023/09/03 01:47:51;;;;;;;10.90;4.00;;;;;;;12.68;100.00;100359.48;108982;1259;67787;-65
2023/09/03 01:51:32;;;;;;;10.90;4.10;;;;;;;12.65;100.00;100360.45;108965;1258;73650;-65
2023/09/03 01:54:24;;;;;;;8.40;3.50;;;;;;;12.62;100.00;100359.44;109037;1258;59448;-64
2023/09/03 01:57:18;;;;;;;9.90;3.40;;;;;;;12.61;100.00;100360.08;108927;1259;60655;-66
2023/09/03 02:00:11;;;;;;;10.30;4.60;;;;;;;12.58;100.00;100357.97;109109;1259;73805;-65
2023/09/03 02:03:02;;;;;;;11.90;3.70;;;;;;;12.55;100.00;100352.69;108952;1258;68525;-65
2023/09/03 02:05:48;;;;;;;8.60;3.40;;;;;;;12.54;100.00;100356.86;108982;1258;73704;-64
2023/09/03 02:08:34;;;;;;;9.10;3.20;;;;;;;12.53;100.00;100354.13;108975;1259;59679;-65
2023/09/03 02:11:21;;;;;;;9.80;3.60;;;;;;;12.52;100.00;100360.92;109070;1259;60019;-65
2023/09/03 02:14:07;;;;;;;9.80;3.60;;;;;;;12.52;100.00;100367.36;108990;1258;74590;-65
2023/09/03 02:16:54;;;;;;;10.00;3.60;;;;;;;12.51;100.00;100364.44;109121;1258;67796;-64
2023/09/03 02:19:40;;;;;;;10.80;3.80;;;;;;;12.50;100.00;100364.52;108970;1260;72373;-68
2023/09/03 02:22:26;;;;;;;10.90;3.40;;;;;;;12.49;100.00;100367.80;109045;1259;60367;-65
2023/09/03 02:25:12;;;;;;;9.70;3.60;;;;;;;12.48;100.00;100368.77;109063;1258;60487;-64
2023/09/03 02:27:59;;;;;;;9.70;3.60;;;;;;;12.46;100.00;100369.59;108991;1259;74878;-65
2023/09/03 02:30:48;;;;;;;9.60;3.50;;;;;;;12.44;100.00;100368.55;109028;1259;67752;-65
2023/09/03 02:33:34;;;;;;;8.20;3.40;;;;;;;12.41;100.00;100371.45;108972;1259;72575;-65
2023/09/03 02:36:21;;;;;;;8.40;3.70;;;;;;;12.39;100.00;100371.59;109114;1259;60298;-68
2023/09/03 02:39:07;;;;;;;8.60;3.10;;;;;;;12.37;100.00;100377.08;109166;1260;58719;-65
2023/09/03 02:41:54;;;;;;;8.70;3.70;;;;;;;12.36;100.00;100378.75;109223;1260;72462;-64
2023/09/03 02:46:39;;;;;;;10.60;3.90;;;;;;;12.37;100.00;100374.83;105913;1291;599531;-66
2023/09/03 02:49:27;;;;;;;10.30;3.50;;;;;;;12.32;100.00;100371.48;105158;1270;59348;-65
2023/09/03 02:52:15;;;;;;;9.80;3.80;;;;;;;12.30;100.00;100373.20;105032;1271;60502;-66
2023/09/03 02:55:04;;;;;;;10.20;3.70;;;;;;;12.26;100.00;100378.48;105646;1256;71060;-65
2023/09/03 02:57:52;;;;;;;9.30;3.80;;;;;;;12.23;100.00;100379.84;105759;1255;68366;-65
2023/09/03 03:00:40;;;;;;;9.50;3.70;;;;;;;12.20;100.00;100377.73;105537;1257;223059;-65
2023/09/03 03:03:28;;;;;;;9.00;3.60;;;;;;;12.16;100.00;100376.45;105649;1254;59672;-67
2023/09/03 03:06:16;;;;;;;11.80;3.70;;;;;;;12.15;100.00;100378.52;105869;1253;60815;-65
2023/09/03 03:09:05;;;;;;;9.70;3.60;;;;;;;12.12;100.00;100383.88;105794;1253;70029;-64
2023/09/03 03:11:53;;;;;;;9.60;3.80;;;;;;;12.10;100.00;100386.34;105795;1252;69421;-64
2023/09/03 03:14:42;;;;;;;9.70;4.30;;;;;;;12.09;100.00;100389.46;105502;1253;71781;-64
2023/09/03 03:17:30;;;;;;;10.80;4.00;;;;;;;12.07;100.00;100387.98;105759;1257;60185;-65
2023/09/03 03:20:20;;;;;;;10.20;4.10;;;;;;;12.05;100.00;100384.41;105685;1253;60760;-64
2023/09/03 03:23:08;;;;;;;9.30;4.00;;;;;;;12.04;100.00;100381.09;105704;1253;71641;-65
2023/09/03 03:25:57;;;;;;;9.60;3.80;;;;;;;12.04;100.00;100381.33;105752;1253;67341;-64
2023/09/03 03:28:46;;;;;;;10.20;3.80;;;;;;;12.04;100.00;100382.74;105557;1258;73312;-64
2023/09/03 03:31:34;;;;;;;11.20;4.00;;;;;;;12.04;100.00;100386.45;105677;1253;60161;-65
2023/09/03 03:34:23;;;;;;;10.70;4.20;;;;;;;12.04;100.00;100379.36;105737;1254;60504;-63
2023/09/03 03:37:13;;;;;;;10.10;4.10;;;;;;;12.05;100.00;100382.16;105740;1253;73059;-64
2023/09/03 03:40:00;;;;;;;12.80;3.40;;;;;;;12.05;100.00;100377.86;105824;1252;69161;-65
2023/09/03 03:42:49;;;;;;;9.30;4.00;;;;;;;12.06;100.00;100380.98;105774;1253;72281;-65
2023/09/03 03:45:38;;;;;;;9.60;4.40;;;;;;;12.07;100.00;100379.07;105879;1255;59234;-65
2023/09/03 03:48:26;;;;;;;8.70;3.80;;;;;;;12.08;100.00;100383.26;105697;1257;59813;-65
2023/09/03 03:51:15;;;;;;;10.60;3.90;;;;;;;12.08;100.00;100384.69;105753;1253;72056;-64
2023/09/03 03:54:05;;;;;;;8.70;3.80;;;;;;;12.09;100.00;100383.77;105775;1252;69270;-65
2023/09/03 03:56:53;;;;;;;8.90;3.90;;;;;;;12.09;100.00;100383.05;105525;1257;72144;-65
2023/09/03 03:59:41;;;;;;;8.40;4.00;;;;;;;12.10;100.00;100386.70;105723;1253;60247;-67
2023/09/03 04:02:29;;;;;;;8.80;3.40;;;;;;;12.11;100.00;100388.77;105782;1257;60626;-64
2023/09/03 04:05:17;;;;;;;10.10;3.80;;;;;;;12.12;100.00;100391.88;105774;1253;71807;-65
2023/09/03 04:08:05;;;;;;;8.70;3.70;;;;;;;12.14;100.00;100395.27;105767;1253;67269;-69
2023/09/03 04:11:08;;;;;;;11.90;4.70;;;;;;;12.15;100.00;100398.04;105638;1253;72647;-67
2023/09/03 04:13:55;;;;;;;11.00;4.30;;;;;;;12.16;100.00;100393.84;105799;1253;60084;-66
2023/09/03 04:16:44;;;;;;;9.30;4.50;;;;;;;12.20;100.00;100391.98;105680;1253;60827;-67
2023/09/03 04:19:32;;;;;;;10.50;4.20;;;;;;;12.23;100.00;100388.88;105408;1253;72758;-66
2023/09/03 04:22:20;;;;;;;12.70;4.60;;;;;;;12.28;100.00;100392.06;105675;1253;68461;-67
2023/09/03 04:25:08;;;;;;;10.70;4.10;;;;;;;12.33;100.00;100392.04;105680;1253;72895;-65
2023/09/03 04:27:58;;;;;;;10.50;4.40;;;;;;;12.38;100.00;100393.00;105644;1254;60033;-66
2023/09/03 04:30:51;;;;;;;10.50;4.80;;;;;;;12.44;100.00;100396.13;105749;1253;61664;-66
2023/09/03 04:33:40;;;;;;;10.70;3.70;;;;;;;12.51;100.00;100390.08;105659;1253;70890;-66
2023/09/03 04:36:30;;;;;;;9.00;3.60;;;;;;;12.57;100.00;100391.15;105720;1256;68467;-66
2023/09/03 04:39:18;;;;;;;11.10;4.00;;;;;;;12.66;100.00;100387.45;105692;1253;74215;-65
2023/09/03 04:42:07;;;;;;;10.20;3.90;;;;;;;12.75;100.00;100388.25;105668;1253;60494;-67
2023/09/03 04:44:55;;;;;;;10.50;4.00;;;;;;;12.84;100.00;100382.71;105606;1253;61236;-65
2023/09/03 04:47:44;;;;;;;12.30;3.50;;;;;;;12.95;100.00;100384.55;105794;1253;71810;-66
2023/09/03 04:50:33;;;;;;;10.30;4.40;;;;;;;13.06;100.00;100382.50;105888;1257;68279;-68
2023/09/03 04:53:21;;;;;;;9.00;3.70;;;;;;;13.17;100.00;100382.14;105561;1257;73924;-66
2023/09/03 04:56:12;;;;;;;9.10;3.90;;;;;;;13.29;100.00;100382.05;105603;1258;61200;-64
2023/09/03 04:59:03;;;;;;;10.30;3.20;;;;;;;13.42;100.00;100387.58;105598;1257;60501;-68
2023/09/03 05:01:52;;;;;;;8.50;3.20;;;;;;;13.56;100.00;100387.86;105555;1257;70886;-67
2023/09/03 05:04:42;;;;;;;8.10;3.30;;;;;;;13.68;100.00;100395.17;105512;1257;69550;-67
2023/09/03 05:07:30;;;;;;;10.00;3.50;;;;;;;13.79;100.00;100397.65;105770;1257;74574;-65
2023/09/03 05:10:19;;;;;;;10.00;3.10;;;;;;;13.88;100.00;100404.00;105739;1253;59290;-66
2023/09/03 05:13:06;;;;;;;9.00;3.10;;;;;;;13.99;100.00;100408.03;105524;1257;60558;-65
2023/09/03 05:15:55;;;;;;;8.40;3.20;;;;;;;14.10;100.00;100406.56;105675;1255;72125;-68
2023/09/03 05:18:43;;;;;;;9.20;3.50;;;;;;;14.19;100.00;100403.80;105609;1257;69206;-69
2023/09/03 05:21:32;;;;;;;8.10;3.70;;;;;;;14.29;100.00;100410.61;105676;1257;73010;-67
2023/09/03 05:24:20;;;;;;;9.30;3.60;;;;;;;14.38;100.00;100415.90;105686;1253;59426;-65
2023/09/03 05:27:09;;;;;;;8.90;3.10;;;;;;;14.47;100.00;100414.95;105462;1253;61044;-67
2023/09/03 05:29:58;;;;;;;9.00;3.30;;;;;;;14.58;100.00;100416.63;105744;1256;71781;-68
2023/09/03 05:32:46;;;;;;;10.20;3.40;;;;;;;14.71;100.00;100422.16;105550;1253;68637;-65
2023/09/03 05:35:34;;;;;;;8.50;3.40;;;;;;;14.84;100.00;100426.02;105709;1258;73048;-65
2023/09/03 05:38:23;;;;;;;9.10;3.40;;;;;;;14.96;100.00;100426.54;105593;1258;60196;-66
2023/09/03 05:41:11;;;;;;;9.50;3.30;;;;;;;15.08;99.71;100422.75;105780;1255;60656;-66
2023/09/03 05:44:05;;;;;;;9.40;3.70;;;;;;;15.21;99.42;100426.19;105439;1253;72143;-65
2023/09/03 05:46:54;;;;;;;8.40;2.90;;;;;;;15.37;98.76;100421.92;105692;1256;68294;-70
2023/09/03 05:49:43;;;;;;;8.40;3.20;;;;;;;15.58;98.72;100430.26;105795;1254;73492;-69
2023/09/03 05:52:32;;;;;;;9.20;3.10;;;;;;;15.84;97.70;100428.48;105637;1259;59323;-69
2023/09/03 05:55:20;;;;;;;9.70;3.20;;;;;;;16.14;96.80;100424.98;105739;1256;59234;-70
2023/09/03 05:58:08;;;;;;;9.20;3.00;;;;;;;16.45;95.25;100426.60;105699;1254;70594;-68
2023/09/03 06:00:56;;;;;;;8.60;3.10;;;;;;;16.76;94.04;100424.30;105694;1253;68556;-65
2023/09/03 06:03:45;;;;;;;8.70;2.90;;;;;;;17.07;92.40;100422.94;105758;1254;72958;-66
2023/09/03 06:06:38;;;;;;;9.50;2.70;;;;;;;17.33;90.76;100424.16;105772;1256;59317;-67
2023/09/03 06:09:26;;;;;;;8.60;2.60;;;;;;;17.53;89.87;100418.00;105488;1259;60583;-66
2023/09/03 06:12:14;;;;;;;8.70;2.90;;;;;;;17.71;88.84;100413.46;105671;1256;72960;-69
2023/09/03 06:15:03;;;;;;;8.50;2.50;;;;;;;17.85;87.44;100412.04;105768;1256;68759;-69
2023/09/03 06:17:53;;;;;;;8.60;3.20;;;;;;;17.93;86.32;100414.13;105940;1253;73002;-68
2023/09/03 06:20:42;;;;;;;9.30;3.00;;;;;;;18.03;85.23;100419.59;105923;1254;59352;-68
2023/09/03 06:23:30;;;;;;;9.40;3.00;;;;;;;18.19;84.78;100423.25;105900;1254;59294;-69
2023/09/03 06:26:18;;;;;;;10.40;3.10;;;;;;;18.63;84.15;100417.58;105955;1253;70931;-68
2023/09/03 06:29:06;;;;;;;9.20;3.10;;;;;;;19.23;81.48;100413.55;105820;1253;68348;-71
2023/09/03 06:31:54;;;;;;;9.80;3.10;;;;;;;20.01;79.12;100408.79;105777;1254;72368;-66
2023/09/03 06:34:42;;;;;;;8.10;3.00;;;;;;;20.97;72.98;100410.11;105766;1256;59430;-68
2023/09/03 06:37:31;;;;;;;8.80;2.80;;;;;;;21.95;69.96;100406.33;105794;1254;60151;-69
2023/09/03 06:40:19;;;;;;;8.10;3.20;;;;;;;22.52;65.58;100415.69;105805;1254;72913;-68
2023/09/03 06:43:08;;;;;;;11.90;4.10;;;;;;;22.51;65.42;100427.14;106053;1253;68234;-67
2023/09/03 06:45:57;;;;;;;8.20;3.20;;;;;;;22.08;65.31;100429.13;106052;1253;74214;-65
2023/09/03 06:48:45;;;;;;;7.70;3.30;;;;;;;21.45;66.58;100424.86;105717;1253;59574;-65
2023/09/03 06:51:32;;;;;;;7.60;2.90;;;;;;;20.93;68.63;100428.80;105719;1254;61887;-66
2023/09/03 06:54:21;;;;;;;8.60;3.20;;;;;;;21.04;69.13;100430.02;105847;1253;72143;-70
2023/09/03 06:57:09;;;;;;;8.60;3.20;;;;;;;22.38;66.35;100426.11;105811;1253;68241;-67
2023/09/03 07:00:15;;;;;;;9.20;3.10;;;;;;;23.86;60.43;100420.95;105676;1258;73306;-65
2023/09/03 07:03:03;;;;;;;11.20;3.00;;;;;;;25.17;56.80;100415.26;105802;1257;59216;-68
2023/09/03 07:05:51;;;;;;;9.80;3.10;;;;;;;26.22;52.37;100408.13;105776;1252;59245;-65
2023/09/03 07:08:39;;;;;;;8.60;2.80;;;;;;;27.25;49.91;100413.74;105554;1253;73108;-69
2023/09/03 07:11:27;;;;;;;7.30;2.30;;;;;;;28.25;47.44;100415.84;105785;1253;67275;-67
2023/09/03 07:14:15;;;;;;;8.40;2.60;;;;;;;28.95;44.49;100412.98;105702;1253;74299;-66
2023/09/03 07:23:56;;;;;;;7.60;2.50;;;;;;;30.90;39.63;100421.48;102449;1298;600068;-69
2023/09/03 07:26:44;;;;;;;7.60;2.50;;;;;;;30.82;39.68;100422.22;104687;1271;59354;-67
2023/09/03 07:29:32;;;;;;;8.20;2.20;;;;;;;30.13;40.80;100433.34;104887;1267;59768;-68
2023/09/03 07:32:21;;;;;;;8.00;2.00;;;;;;;29.45;41.46;100438.72;104949;1267;70042;-69
2023/09/03 07:35:09;;;;;;;7.50;2.20;;;;;;;29.18;41.46;100447.38;104755;1271;68366;-67
2023/09/03 07:37:57;;;;;;;8.50;2.30;;;;;;;28.88;42.04;100440.88;104800;1267;208865;-68
2023/09/03 07:40:46;;;;;;;7.70;2.40;;;;;;;28.17;42.69;100438.66;105067;1277;59531;-67
2023/09/03 07:43:35;;;;;;;6.80;2.20;;;;;;;27.67;43.73;100452.59;104899;1267;60554;-67
2023/09/03 07:46:24;;;;;;;7.60;2.10;;;;;;;27.54;44.09;100458.70;104802;1270;71097;-67
2023/09/03 07:49:12;;;;;;;7.50;2.10;;;;;;;26.98;44.95;100460.05;104972;1264;68575;-66
2023/09/03 07:52:00;;;;;;;8.40;2.20;;;;;;;26.97;45.24;100462.23;104986;1270;74211;-65
2023/09/03 07:54:49;;;;;;;9.50;2.40;;;;;;;26.07;46.71;100460.67;105110;1266;59356;-67
2023/09/03 07:57:37;;;;;;;8.80;2.20;;;;;;;25.16;48.85;100471.58;104780;1269;61374;-67
2023/09/03 08:00:25;;;;;;;7.80;2.30;;;;;;;24.33;50.83;100469.55;105407;1257;72483;-64
2023/09/03 08:03:13;;;;;;;7.80;2.20;;;;;;;23.68;52.87;100475.49;105315;1262;68184;-67
2023/09/03 08:06:03;;;;;;;9.00;2.40;;;;;;;23.65;54.82;100482.64;105309;1257;73070;-64
2023/09/03 08:08:55;;;;;;;7.80;2.20;;;;;;;25.13;51.34;100472.94;105287;1257;59323;-66
2023/09/03 08:11:43;;;;;;;8.30;2.30;;;;;;;25.64;49.83;100471.33;105477;1257;61790;-64
2023/09/03 08:14:31;;;;;;;8.20;1.90;;;;;;;25.36;49.33;100477.92;105381;1257;70629;-68
2023/09/03 08:17:20;;;;;;;7.50;2.10;;;;;;;24.69;50.09;100482.39;105191;1259;67679;-65
2023/09/03 08:20:09;;;;;;;11.40;2.50;;;;;;;23.86;52.04;100487.95;105377;1258;72982;-65
2023/09/03 08:22:57;;;;;;;9.30;2.20;;;;;;;24.59;52.25;100481.98;105637;1257;59263;-67
2023/09/03 08:25:46;;;;;;;7.70;2.10;;;;;;;26.25;47.71;100481.08;105462;1262;60802;-65
2023/09/03 08:28:34;;;;;;;8.40;2.10;;;;;;;27.29;44.12;100477.34;105374;1257;72901;-66
2023/09/03 08:31:23;;;;;;;6.80;1.90;;;;;;;28.32;41.43;100477.61;105272;1258;67386;-66
2023/09/03 08:34:10;;;;;;;7.50;2.00;;;;;;;28.26;40.82;100476.80;105114;1262;73318;-67
2023/09/03 08:36:58;;;;;;;7.10;1.60;;;;;;;28.50;40.53;100478.98;105532;1258;59346;-65
2023/09/03 08:39:46;;;;;;;8.30;1.70;;;;;;;27.99;39.99;100475.45;105114;1258;60121;-67
2023/09/03 08:42:37;;;;;;;10.50;1.90;;;;;;;27.68;40.83;100475.36;105220;1257;71994;-65
2023/09/03 08:45:27;;;;;;;8.80;2.00;;;;;;;28.67;39.06;100472.09;105362;1263;68470;-65
2023/09/03 08:48:16;;;;;;;7.50;1.80;;;;;;;29.10;37.90;100465.96;104989;1258;73244;-66
2023/09/03 08:51:05;;;;;;;6.20;1.50;;;;;;;29.46;37.41;100463.52;105527;1262;59256;-69
2023/09/03 08:53:56;;;;;;;7.80;1.70;;;;;;;29.91;36.68;100464.81;105229;1260;59995;-69
2023/09/03 08:56:48;;;;;;;7.80;1.60;;;;;;;29.44;36.44;100463.06;105141;1256;71974;-66
2023/09/03 08:59:36;;;;;;;8.00;1.70;;;;;;;29.31;36.71;100462.83;105518;1257;68388;-67
2023/09/03 09:02:26;;;;;;;7.10;1.40;;;;;;;28.50;37.99;100459.62;105237;1257;73632;-69
2023/09/03 09:05:15;;;;;;;6.10;1.60;;;;;;;27.44;39.81;100460.23;105545;1260;59244;-66
2023/09/03 09:08:04;;;;;;;7.30;2.00;;;;;;;27.47;40.57;100457.99;105322;1257;61837;-67
2023/09/03 09:10:54;;;;;;;6.40;1.60;;;;;;;28.40;39.27;100453.66;105328;1255;71905;-66
2023/09/03 09:14:14;;;;;;;6.90;2.00;;;;;;;29.54;37.45;100454.35;105579;1254;67050;-69
2023/09/03 09:17:03;;;;;;;7.10;1.70;;;;;;;29.97;36.50;100449.92;105856;1253;73639;-66
2023/09/03 09:19:51;;;;;;;8.50;1.80;;;;;;;29.00;37.34;100454.03;105736;1257;59267;-70
2023/09/03 09:22:44;;;;;;;6.00;1.50;;;;;;;27.83;38.80;100454.34;105213;1257;59419;-65
2023/09/03 09:25:33;;;;;;;6.70;1.70;;;;;;;26.88;40.73;100454.88;105749;1254;71989;-66
2023/09/03 09:28:21;;;;;;;7.10;1.80;;;;;;;26.28;41.51;100456.99;105657;1254;69180;-68
2023/09/03 09:31:10;;;;;;;6.80;1.60;;;;;;;25.67;42.72;100457.24;105736;1254;71603;-68
2023/09/03 09:34:09;;;;;;;6.70;1.50;;;;;;;24.97;44.22;100465.98;105685;1254;59394;-65
2023/09/03 09:36:57;;;;;;;7.60;1.90;;;;;;;24.24;46.31;100472.38;105625;1254;59937;-68
2023/09/03 09:39:49;;;;;;;9.60;4.10;;;;;;;23.95;47.66;100482.29;105627;1253;72232;-69
2023/09/03 09:42:53;;;;;;;8.00;2.40;;;;;;;23.90;48.59;100482.95;105390;1257;69346;-67
2023/09/03 09:45:51;;;;;;;6.50;2.00;;;;;;;24.96;46.97;100482.41;105392;1257;74055;-68
2023/09/03 09:48:57;;;;;;;6.80;1.90;;;;;;;26.59;43.24;100480.11;105667;1257;59351;-68
2023/09/03 09:51:52;;;;;;;6.50;1.60;;;;;;;28.33;39.88;100471.95;105672;1253;59728;-66
2023/09/03 09:54:42;;;;;;;8.60;1.60;;;;;;;29.81;35.92;100480.52;105501;1257;70612;-70
2023/09/03 09:57:30;;;;;;;6.00;1.50;;;;;;;30.90;32.73;100483.64;105720;1255;67494;-72
2023/09/03 10:00:33;;;;;;;5.70;1.30;;;;;;;31.20;31.31;100488.73;105704;1253;73111;-68
2023/09/03 10:03:21;;;;;;;6.20;1.20;;;;;;;31.76;31.43;100500.68;105755;1257;59486;-68
2023/09/03 10:06:13;;;;;;;6.60;1.50;;;;;;;31.57;31.07;100497.45;105733;1253;61793;-67
2023/09/03 10:09:00;;;;;;;6.70;2.00;;;;;;;31.15;31.26;100495.42;105817;1253;72011;-68
2023/09/03 10:11:49;;;;;;;6.20;1.30;;;;;;;31.32;31.43;100500.00;105728;1258;69426;-68
2023/09/03 10:14:38;;;;;;;6.00;1.30;;;;;;;32.21;30.35;100494.62;105704;1257;73508;-68
2023/09/03 10:17:26;;;;;;;6.60;1.40;;;;;;;32.88;29.59;100487.27;105654;1253;59251;-68
2023/09/03 10:20:17;;;;;;;6.10;1.30;;;;;;;33.43;28.50;100490.79;105714;1255;60881;-71
2023/09/03 10:23:07;;;;;;;7.40;2.60;;;;;;;33.38;27.96;100485.12;105886;1254;70514;-67
2023/09/03 10:25:57;;;;;;;6.50;2.40;;;;;;;33.51;27.81;100482.42;105648;1258;67563;-70
2023/09/03 10:29:03;;;;;;;5.60;1.20;;;;;;;33.56;27.07;100482.74;105597;1254;72047;-70
2023/09/03 10:31:53;;;;;;;5.50;1.20;;;;;;;33.41;27.48;100481.89;105448;1257;59160;-67
2023/09/03 10:34:42;;;;;;;6.70;1.50;;;;;;;33.43;27.93;100476.17;105633;1253;60650;-70
2023/09/03 10:37:38;;;;;;;5.10;1.10;;;;;;;33.71;28.04;100468.64;105741;1255;72522;-67
2023/09/03 10:40:30;;;;;;;5.90;1.40;;;;;;;33.70;27.03;100469.73;105734;1260;68439;-66
2023/09/03 10:43:23;;;;;;;5.20;1.20;;;;;;;34.18;26.43;100471.02;105651;1253;72465;-67
2023/09/03 10:46:12;;;;;;;5.50;1.30;;;;;;;34.37;25.43;100473.50;105685;1258;59244;-66
2023/09/03 10:49:01;;;;;;;5.40;1.10;;;;;;;34.47;25.23;100474.17;105513;1253;61425;-69
2023/09/03 10:51:49;;;;;;;5.10;1.10;;;;;;;34.42;25.77;100472.05;105688;1253;71892;-68
2023/09/03 10:54:38;;;;;;;6.00;1.20;;;;;;;34.51;25.51;100475.23;105480;1253;66921;-68
2023/09/03 10:57:26;;;;;;;5.50;1.30;;;;;;;34.27;25.83;100482.45;105625;1257;73324;-68
2023/09/03 11:00:21;;;;;;;7.20;1.30;;;;;;;34.01;26.56;100487.25;105504;1254;59382;-65
2023/09/03 11:03:18;;;;;;;5.30;1.40;;;;;;;33.49;28.12;100484.38;105296;1257;60784;-70
2023/09/03 11:06:17;;;;;;;7.10;1.30;;;;;;;32.41;29.71;100489.50;105700;1253;70765;-67
2023/09/03 11:09:08;;;;;;;7.30;1.30;;;;;;;31.49;31.42;100485.02;105656;1253;67247;-68
2023/09/03 11:12:00;;;;;;;6.40;1.30;;;;;;;31.19;32.30;100480.48;105729;1257;74392;-67
2023/09/03 11:14:52;;;;;;;6.70;1.30;;;;;;;30.73;32.50;100478.47;105429;1254;59325;-67
2023/09/03 11:17:50;;;;;;;7.50;1.30;;;;;;;30.31;32.42;100478.20;105691;1253;61805;-66
2023/09/03 11:20:39;;;;;;;8.20;1.60;;;;;;;29.90;33.05;100479.84;105689;1253;71744;-66
2023/09/03 11:23:38;;;;;;;6.50;1.40;;;;;;;29.60;33.78;100479.81;105683;1254;67364;-66
2023/09/03 11:26:27;;;;;;;5.40;1.10;;;;;;;29.24;33.77;100480.43;105651;1257;72965;-67
2023/09/03 11:29:25;;;;;;;8.40;1.60;;;;;;;28.42;34.51;100486.95;105552;1260;59273;-66
2023/09/03 11:32:13;;;;;;;6.70;1.90;;;;;;;27.89;35.97;100491.02;105671;1260;62002;-66
2023/09/03 11:35:02;;;;;;;7.70;1.80;;;;;;;27.38;37.04;100492.55;105590;1253;72033;-68
2023/09/03 11:37:53;;;;;;;6.40;1.50;;;;;;;27.12;37.42;100492.98;105773;1258;67657;-68
2023/09/03 11:40:43;;;;;;;6.30;1.30;;;;;;;27.17;38.05;100500.44;105707;1253;73192;-68
2023/09/03 11:43:36;;;;;;;5.50;1.30;;;;;;;27.17;37.91;100500.42;105674;1258;59317;-67
2023/09/03 11:46:25;;;;;;;7.00;1.40;;;;;;;26.88;38.30;100500.92;105493;1255;60811;-66
2023/09/03 11:49:21;;;;;;;6.10;1.50;;;;;;;26.52;38.87;100506.89;105505;1254;73341;-66
2023/09/03 11:52:13;;;;;;;7.40;1.50;;;;;;;26.20;39.50;100507.13;105713;1253;66970;-65
2023/09/03 11:55:01;;;;;;;7.40;1.60;;;;;;;26.12;40.01;100512.13;105641;1257;73320;-66
2023/09/03 11:57:49;;;;;;;6.50;1.60;;;;;;;26.00;40.25;100510.17;105742;1258;60017;-65
2023/09/03 12:00:39;;;;;;;6.60;1.30;;;;;;;25.68;40.28;100513.94;105715;1258;60724;-67
2023/09/03 12:03:27;;;;;;;5.90;1.30;;;;;;;25.35;41.03;100513.52;106184;1253;72920;-69
2023/09/03 12:06:18;;;;;;;6.80;1.50;;;;;;;25.18;41.90;100514.96;106403;1254;66850;-69
2023/09/03 12:09:06;;;;;;;6.80;1.50;;;;;;;25.05;42.52;100520.83;105618;1257;73198;-66
2023/09/03 12:11:54;;;;;;;7.50;1.70;;;;;;;24.92;42.72;100523.21;105881;1257;59633;-68
2023/09/03 12:14:43;;;;;;;6.80;1.40;;;;;;;24.70;43.47;100520.13;105843;1253;61766;-68
2023/09/03 12:17:31;;;;;;;8.30;1.60;;;;;;;24.41;43.80;100529.98;105703;1253;72794;-66
2023/09/03 12:20:35;;;;;;;7.10;1.50;;;;;;;24.14;44.80;100531.67;105714;1257;68410;-70
2023/09/03 12:23:23;;;;;;;8.40;3.30;;;;;;;23.96;45.08;100531.57;105698;1253;73238;-67
2023/09/03 12:26:16;;;;;;;6.00;1.60;;;;;;;23.82;45.26;100536.85;105458;1257;59258;-67
2023/09/03 12:29:18;;;;;;;8.00;1.50;;;;;;;23.85;45.10;100538.13;105714;1253;61755;-68
2023/09/03 12:32:10;;;;;;;6.60;1.60;;;;;;;23.65;44.36;100545.25;105481;1253;72521;-66
2023/09/03 12:34:58;;;;;;;6.00;1.60;;;;;;;23.58;43.98;100544.94;105678;1257;69321;-67
2023/09/03 12:37:45;;;;;;;5.90;1.40;;;;;;;23.66;44.37;100539.16;105710;1257;71533;-68
2023/09/03 12:40:35;;;;;;;5.90;1.70;;;;;;;23.58;44.78;100539.14;105683;1258;59283;-64
2023/09/03 12:43:37;;;;;;;5.50;1.70;;;;;;;23.48;45.35;100542.45;105715;1253;60837;-67
2023/09/03 12:46:25;;;;;;;7.60;1.60;;;;;;;23.26;46.45;100554.08;105421;1254;72833;-69
2023/09/03 12:49:14;;;;;;;7.10;1.50;;;;;;;22.99;46.34;100556.89;105499;1253;68401;-68
2023/09/03 12:52:02;;;;;;;7.50;1.70;;;;;;;22.82;46.97;100555.83;105726;1253;73354;-68
2023/09/03 12:54:50;;;;;;;7.00;1.40;;;;;;;22.85;46.84;100556.78;105718;1253;59306;-65
2023/09/03 12:57:38;;;;;;;7.90;1.80;;;;;;;22.87;46.67;100557.42;105745;1258;60561;-66
2023/09/03 13:00:27;;;;;;;5.70;1.60;;;;;;;22.93;46.78;100563.87;105882;1253;73713;-66
2023/09/03 13:03:15;;;;;;;6.20;1.40;;;;;;;23.01;46.34;100567.27;105944;1254;67032;-66
2023/09/03 13:06:05;;;;;;;6.40;1.60;;;;;;;22.87;45.82;100566.45;105645;1253;73071;-66